CheckWX is a tool to help pilots better visualize weather data.  It is not intended as a substitute for an official pre-flight weather briefing.

00:39:51 UTC

KANE METAR
Anoka County-Blaine (Janes Field) Airport
Minneapolis, Minnesota, USA
Current

50 mins ago

KANE 162350Z 14004KT 10SM FEW035 SCT150 BKN250 28/21 A2987 RMK CB DSNT SW
Observed
Jul-16 @ 23:50 UTC
Wind
  • 140° at 4 KTS
Visibility
10 SM
Flight Rules
VFR
Cloud Levels
  • Few at 3,500' AGL
  • Scattered at 15,000' AGL
  • Broken at 25,000' AGL
Temperature
28°C / 82°F
Dewpoint
21°C / 70°F
Heat Index
30°C / 86°F
Humidity
66%
Altimeter
29.87" Hg
Pressure
1011.52 hPa
Previous

2 hours ago

KANE 162252Z 18005KT 10SM FEW035 SCT150 BKN250 29/19 A2987
Observed
Jul-16 @ 22:52 UTC
Wind
  • 180° at 5 KTS
Visibility
10 SM
Flight Rules
VFR
Cloud Levels
  • Few at 3,500' AGL
  • Scattered at 15,000' AGL
  • Broken at 25,000' AGL
Temperature
29°C / 84°F
Dewpoint
19°C / 66°F
Heat Index
30°C / 86°F
Humidity
55%
Altimeter
29.87" Hg
Pressure
1011.52 hPa
Previous

3 hours ago

KANE 162145Z 00000KT 10SM FEW025 SCT040 BKN250 29/21 A2986 RMK CB DSNT SE
Observed
Jul-16 @ 21:45 UTC
Visibility
10 SM
Flight Rules
VFR
Cloud Levels
  • Few at 2,500' AGL
  • Scattered at 4,000' AGL
  • Broken at 25,000' AGL
Temperature
29°C / 84°F
Dewpoint
21°C / 70°F
Heat Index
31°C / 88°F
Humidity
62%
Altimeter
29.86" Hg
Pressure
1011.22 hPa